sensor_id;sensor_type;location;lat;lon;timestamp;P1;durP1;ratioP1;P2;durP2;ratioP2
8580;SDS011;4328;48.622;9.230;2024-03-23T00:53:03;16.10;;;5.10;;
8580;SDS011;4328;48.622;9.230;2024-03-23T00:55:29;13.37;;;4.83;;
8580;SDS011;4328;48.622;9.230;2024-03-23T00:57:56;12.10;;;4.70;;
8580;SDS011;4328;48.622;9.230;2024-03-23T01:00:21;12.37;;;4.77;;
8580;SDS011;4328;48.622;9.230;2024-03-23T01:02:48;11.43;;;4.57;;
8580;SDS011;4328;48.622;9.230;2024-03-23T01:05:13;11.97;;;4.87;;
8580;SDS011;4328;48.622;9.230;2024-03-23T01:07:40;12.40;;;5.00;;
8580;SDS011;4328;48.622;9.230;2024-03-23T01:10:07;11.50;;;4.23;;
8580;SDS011;4328;48.622;9.230;2024-03-23T01:12:34;13.67;;;4.97;;
8580;SDS011;4328;48.622;9.230;2024-03-23T01:14:59;11.57;;;4.77;;
8580;SDS011;4328;48.622;9.230;2024-03-23T01:17:26;13.53;;;4.70;;
8580;SDS011;4328;48.622;9.230;2024-03-23T01:19:51;15.87;;;4.80;;
8580;SDS011;4328;48.622;9.230;2024-03-23T01:22:18;17.23;;;5.30;;
8580;SDS011;4328;48.622;9.230;2024-03-23T01:24:43;12.13;;;4.73;;
8580;SDS011;4328;48.622;9.230;2024-03-23T01:27:11;13.07;;;5.00;;
8580;SDS011;4328;48.622;9.230;2024-03-23T01:29:37;15.03;;;5.17;;
8580;SDS011;4328;48.622;9.230;2024-03-23T01:32:04;11.93;;;4.60;;
8580;SDS011;4328;48.622;9.230;2024-03-23T01:34:30;12.87;;;4.57;;
8580;SDS011;4328;48.622;9.230;2024-03-23T01:36:56;16.07;;;5.00;;
8580;SDS011;4328;48.622;9.230;2024-03-23T01:39:22;14.10;;;4.87;;
8580;SDS011;4328;48.622;9.230;2024-03-23T01:41:48;9.83;;;4.20;;
8580;SDS011;4328;48.622;9.230;2024-03-23T01:44:16;11.23;;;4.00;;
8580;SDS011;4328;48.622;9.230;2024-03-23T01:46:43;10.37;;;4.10;;
8580;SDS011;4328;48.622;9.230;2024-03-23T01:49:09;13.17;;;4.27;;
8580;SDS011;4328;48.622;9.230;2024-03-23T01:51:36;16.13;;;5.13;;
8580;SDS011;4328;48.622;9.230;2024-03-23T01:54:02;9.30;;;4.13;;
8580;SDS011;4328;48.622;9.230;2024-03-23T01:56:30;12.90;;;5.00;;
8580;SDS011;4328;48.622;9.230;2024-03-23T01:58:58;12.33;;;4.67;;
8580;SDS011;4328;48.622;9.230;2024-03-23T02:01:27;14.73;;;4.40;;
8580;SDS011;4328;48.622;9.230;2024-03-23T02:03:52;15.63;;;4.43;;
8580;SDS011;4328;48.622;9.230;2024-03-23T02:06:19;11.03;;;3.97;;
8580;SDS011;4328;48.622;9.230;2024-03-23T02:08:45;13.10;;;4.27;;
8580;SDS011;4328;48.622;9.230;2024-03-23T02:11:11;13.30;;;4.23;;
8580;SDS011;4328;48.622;9.230;2024-03-23T02:13:37;13.87;;;4.00;;
8580;SDS011;4328;48.622;9.230;2024-03-23T02:16:04;10.30;;;3.73;;
8580;SDS011;4328;48.622;9.230;2024-03-23T02:18:32;11.43;;;3.97;;
8580;SDS011;4328;48.622;9.230;2024-03-23T02:20:58;11.80;;;4.03;;
8580;SDS011;4328;48.622;9.230;2024-03-23T02:23:25;7.87;;;3.20;;
8580;SDS011;4328;48.622;9.230;2024-03-23T02:25:52;9.87;;;3.77;;
8580;SDS011;4328;48.622;9.230;2024-03-23T02:28:18;8.87;;;3.60;;
8580;SDS011;4328;48.622;9.230;2024-03-23T02:30:44;6.33;;;3.10;;
8580;SDS011;4328;48.622;9.230;2024-03-23T02:33:10;9.77;;;3.63;;
8580;SDS011;4328;48.622;9.230;2024-03-23T02:35:37;7.67;;;3.30;;
8580;SDS011;4328;48.622;9.230;2024-03-23T02:38:02;9.67;;;3.70;;
8580;SDS011;4328;48.622;9.230;2024-03-23T02:40:30;10.67;;;4.07;;
8580;SDS011;4328;48.622;9.230;2024-03-23T02:42:56;10.73;;;3.90;;
8580;SDS011;4328;48.622;9.230;2024-03-23T02:45:23;9.83;;;3.67;;
8580;SDS011;4328;48.622;9.230;2024-03-23T02:47:49;12.80;;;3.73;;
8580;SDS011;4328;48.622;9.230;2024-03-23T02:50:17;12.00;;;3.63;;
8580;SDS011;4328;48.622;9.230;2024-03-23T02:52:43;11.37;;;3.90;;
8580;SDS011;4328;48.622;9.230;2024-03-23T02:55:09;11.47;;;3.70;;
8580;SDS011;4328;48.622;9.230;2024-03-23T02:57:36;10.20;;;3.83;;
8580;SDS011;4328;48.622;9.230;2024-03-23T03:00:03;10.70;;;3.87;;
8580;SDS011;4328;48.622;9.230;2024-03-23T03:02:31;10.10;;;3.80;;
8580;SDS011;4328;48.622;9.230;2024-03-23T03:04:58;11.30;;;4.07;;
8580;SDS011;4328;48.622;9.230;2024-03-23T03:07:23;10.47;;;3.67;;
8580;SDS011;4328;48.622;9.230;2024-03-23T03:09:50;10.00;;;3.30;;
8580;SDS011;4328;48.622;9.230;2024-03-23T03:12:16;11.17;;;3.83;;
8580;SDS011;4328;48.622;9.230;2024-03-23T03:14:43;10.30;;;3.77;;
8580;SDS011;4328;48.622;9.230;2024-03-23T03:17:09;10.70;;;3.60;;
8580;SDS011;4328;48.622;9.230;2024-03-23T03:19:35;10.30;;;3.60;;
8580;SDS011;4328;48.622;9.230;2024-03-23T03:22:01;11.27;;;3.40;;
8580;SDS011;4328;48.622;9.230;2024-03-23T03:24:29;12.70;;;3.93;;
8580;SDS011;4328;48.622;9.230;2024-03-23T03:26:55;11.60;;;4.07;;
8580;SDS011;4328;48.622;9.230;2024-03-23T03:29:22;11.63;;;3.93;;
8580;SDS011;4328;48.622;9.230;2024-03-23T03:31:49;11.33;;;3.60;;
8580;SDS011;4328;48.622;9.230;2024-03-23T03:34:16;11.03;;;3.50;;
8580;SDS011;4328;48.622;9.230;2024-03-23T03:36:41;7.70;;;3.10;;
8580;SDS011;4328;48.622;9.230;2024-03-23T03:39:08;10.50;;;3.83;;
8580;SDS011;4328;48.622;9.230;2024-03-23T03:41:34;12.27;;;3.80;;
8580;SDS011;4328;48.622;9.230;2024-03-23T03:44:00;7.90;;;3.33;;
8580;SDS011;4328;48.622;9.230;2024-03-23T03:46:27;12.93;;;3.93;;
8580;SDS011;4328;48.622;9.230;2024-03-23T03:48:55;12.37;;;3.70;;
8580;SDS011;4328;48.622;9.230;2024-03-23T03:51:20;6.10;;;2.90;;
8580;SDS011;4328;48.622;9.230;2024-03-23T03:53:47;12.73;;;3.80;;
8580;SDS011;4328;48.622;9.230;2024-03-23T03:56:13;10.03;;;3.40;;
8580;SDS011;4328;48.622;9.230;2024-03-23T03:58:40;10.53;;;3.53;;
8580;SDS011;4328;48.622;9.230;2024-03-23T04:01:05;11.20;;;3.40;;
8580;SDS011;4328;48.622;9.230;2024-03-23T04:03:32;11.83;;;3.70;;
8580;SDS011;4328;48.622;9.230;2024-03-23T04:05:59;8.00;;;3.30;;
8580;SDS011;4328;48.622;9.230;2024-03-23T04:08:26;12.57;;;4.07;;
8580;SDS011;4328;48.622;9.230;2024-03-23T04:10:51;8.17;;;3.00;;
8580;SDS011;4328;48.622;9.230;2024-03-23T04:13:18;8.40;;;3.40;;
8580;SDS011;4328;48.622;9.230;2024-03-23T04:15:43;11.53;;;3.80;;
8580;SDS011;4328;48.622;9.230;2024-03-23T04:18:11;8.57;;;3.23;;
8580;SDS011;4328;48.622;9.230;2024-03-23T04:20:36;12.63;;;3.80;;
8580;SDS011;4328;48.622;9.230;2024-03-23T04:23:05;11.80;;;3.90;;
8580;SDS011;4328;48.622;9.230;2024-03-23T04:25:30;10.73;;;3.60;;
8580;SDS011;4328;48.622;9.230;2024-03-23T04:27:57;10.10;;;3.77;;
8580;SDS011;4328;48.622;9.230;2024-03-23T04:30:23;9.70;;;3.33;;
8580;SDS011;4328;48.622;9.230;2024-03-23T04:32:50;10.23;;;3.40;;
8580;SDS011;4328;48.622;9.230;2024-03-23T04:35:15;14.33;;;3.63;;
8580;SDS011;4328;48.622;9.230;2024-03-23T04:37:42;11.23;;;3.83;;
8580;SDS011;4328;48.622;9.230;2024-03-23T04:40:12;14.27;;;3.60;;
8580;SDS011;4328;48.622;9.230;2024-03-23T04:42:38;12.50;;;3.60;;
8580;SDS011;4328;48.622;9.230;2024-03-23T04:45:05;8.87;;;3.43;;
8580;SDS011;4328;48.622;9.230;2024-03-23T04:47:33;12.70;;;3.73;;
8580;SDS011;4328;48.622;9.230;2024-03-23T04:50:01;10.70;;;3.77;;
8580;SDS011;4328;48.622;9.230;2024-03-23T04:52:26;10.30;;;3.43;;
8580;SDS011;4328;48.622;9.230;2024-03-23T04:54:53;12.33;;;3.57;;
8580;SDS011;4328;48.622;9.230;2024-03-23T04:57:20;10.23;;;3.60;;
8580;SDS011;4328;48.622;9.230;2024-03-23T04:59:46;11.87;;;3.63;;
8580;SDS011;4328;48.622;9.230;2024-03-23T05:02:12;12.53;;;3.43;;
8580;SDS011;4328;48.622;9.230;2024-03-23T05:04:39;10.80;;;3.07;;
8580;SDS011;4328;48.622;9.230;2024-03-23T05:07:05;12.50;;;3.70;;
8580;SDS011;4328;48.622;9.230;2024-03-23T05:09:32;10.80;;;3.53;;
8580;SDS011;4328;48.622;9.230;2024-03-23T05:11:58;11.20;;;3.50;;
8580;SDS011;4328;48.622;9.230;2024-03-23T05:14:26;11.87;;;3.60;;
8580;SDS011;4328;48.622;9.230;2024-03-23T05:16:52;11.93;;;3.87;;
8580;SDS011;4328;48.622;9.230;2024-03-23T05:19:20;11.90;;;3.93;;
8580;SDS011;4328;48.622;9.230;2024-03-23T05:21:46;11.23;;;3.67;;
8580;SDS011;4328;48.622;9.230;2024-03-23T05:24:12;8.37;;;3.37;;
8580;SDS011;4328;48.622;9.230;2024-03-23T05:26:38;9.30;;;3.77;;
8580;SDS011;4328;48.622;9.230;2024-03-23T05:29:04;9.37;;;3.97;;
8580;SDS011;4328;48.622;9.230;2024-03-23T05:31:37;11.03;;;4.40;;
8580;SDS011;4328;48.622;9.230;2024-03-23T05:34:03;11.77;;;4.67;;
8580;SDS011;4328;48.622;9.230;2024-03-23T05:36:29;5.93;;;3.80;;
8580;SDS011;4328;48.622;9.230;2024-03-23T05:38:57;12.60;;;5.07;;
8580;SDS011;4328;48.622;9.230;2024-03-23T05:41:23;21.13;;;5.80;;
8580;SDS011;4328;48.622;9.230;2024-03-23T05:43:50;7.43;;;4.10;;
8580;SDS011;4328;48.622;9.230;2024-03-23T05:46:15;5.97;;;3.70;;
8580;SDS011;4328;48.622;9.230;2024-03-23T05:48:44;13.37;;;4.53;;
8580;SDS011;4328;48.622;9.230;2024-03-23T05:51:10;12.90;;;4.63;;
8580;SDS011;4328;48.622;9.230;2024-03-23T05:53:37;14.30;;;5.47;;
8580;SDS011;4328;48.622;9.230;2024-03-23T05:56:03;12.70;;;5.63;;
8580;SDS011;4328;48.622;9.230;2024-03-23T05:58:31;14.47;;;5.60;;
8580;SDS011;4328;48.622;9.230;2024-03-23T06:00:57;13.53;;;6.00;;
8580;SDS011;4328;48.622;9.230;2024-03-23T06:03:25;13.13;;;6.03;;
8580;SDS011;4328;48.622;9.230;2024-03-23T06:05:53;13.77;;;6.67;;
8580;SDS011;4328;48.622;9.230;2024-03-23T06:08:21;17.13;;;7.27;;
8580;SDS011;4328;48.622;9.230;2024-03-23T06:10:47;12.80;;;6.40;;
8580;SDS011;4328;48.622;9.230;2024-03-23T06:13:15;14.80;;;7.23;;
8580;SDS011;4328;48.622;9.230;2024-03-23T06:15:42;17.50;;;6.87;;
8580;SDS011;4328;48.622;9.230;2024-03-23T06:18:08;18.60;;;7.43;;
8580;SDS011;4328;48.622;9.230;2024-03-23T06:20:34;15.23;;;7.27;;
8580;SDS011;4328;48.622;9.230;2024-03-23T06:23:02;16.37;;;7.97;;
8580;SDS011;4328;48.622;9.230;2024-03-23T06:25:28;8.90;;;5.67;;
8580;SDS011;4328;48.622;9.230;2024-03-23T06:27:55;11.50;;;6.00;;
8580;SDS011;4328;48.622;9.230;2024-03-23T06:30:21;15.93;;;6.57;;
8580;SDS011;4328;48.622;9.230;2024-03-23T06:32:48;16.03;;;6.13;;
8580;SDS011;4328;48.622;9.230;2024-03-23T06:35:14;12.53;;;5.20;;
8580;SDS011;4328;48.622;9.230;2024-03-23T06:37:40;13.17;;;4.67;;
8580;SDS011;4328;48.622;9.230;2024-03-23T06:40:08;10.60;;;3.60;;
8580;SDS011;4328;48.622;9.230;2024-03-23T06:42:36;10.27;;;3.90;;
8580;SDS011;4328;48.622;9.230;2024-03-23T06:45:02;11.33;;;4.13;;
8580;SDS011;4328;48.622;9.230;2024-03-23T06:47:30;10.87;;;3.80;;
8580;SDS011;4328;48.622;9.230;2024-03-23T06:49:56;11.23;;;3.30;;
8580;SDS011;4328;48.622;9.230;2024-03-23T06:52:23;7.60;;;2.33;;
8580;SDS011;4328;48.622;9.230;2024-03-23T06:54:48;9.13;;;2.77;;
8580;SDS011;4328;48.622;9.230;2024-03-23T06:57:17;9.90;;;2.57;;
8580;SDS011;4328;48.622;9.230;2024-03-23T06:59:43;8.53;;;2.07;;
8580;SDS011;4328;48.622;9.230;2024-03-23T07:02:09;9.73;;;2.30;;
8580;SDS011;4328;48.622;9.230;2024-03-23T07:04:35;9.13;;;2.03;;
8580;SDS011;4328;48.622;9.230;2024-03-23T07:07:02;8.70;;;2.23;;
8580;SDS011;4328;48.622;9.230;2024-03-23T07:09:28;9.57;;;2.17;;
8580;SDS011;4328;48.622;9.230;2024-03-23T07:11:56;13.60;;;3.03;;
8580;SDS011;4328;48.622;9.230;2024-03-23T07:14:23;11.87;;;2.53;;
8580;SDS011;4328;48.622;9.230;2024-03-23T07:16:50;10.03;;;2.30;;
8580;SDS011;4328;48.622;9.230;2024-03-23T07:19:16;7.10;;;1.73;;
8580;SDS011;4328;48.622;9.230;2024-03-23T07:21:43;7.20;;;1.80;;
8580;SDS011;4328;48.622;9.230;2024-03-23T07:24:09;4.53;;;1.37;;
8580;SDS011;4328;48.622;9.230;2024-03-23T07:26:36;8.20;;;1.87;;
8580;SDS011;4328;48.622;9.230;2024-03-23T07:29:02;6.43;;;1.57;;
8580;SDS011;4328;48.622;9.230;2024-03-23T07:31:30;9.23;;;1.83;;
8580;SDS011;4328;48.622;9.230;2024-03-23T07:33:56;8.27;;;1.80;;
8580;SDS011;4328;48.622;9.230;2024-03-23T07:36:23;7.37;;;1.57;;
8580;SDS011;4328;48.622;9.230;2024-03-23T07:38:48;4.40;;;1.13;;
8580;SDS011;4328;48.622;9.230;2024-03-23T07:41:16;13.20;;;2.53;;
8580;SDS011;4328;48.622;9.230;2024-03-23T07:43:43;8.23;;;1.70;;
8580;SDS011;4328;48.622;9.230;2024-03-23T07:46:09;9.37;;;1.83;;
8580;SDS011;4328;48.622;9.230;2024-03-23T07:48:36;11.43;;;2.27;;
8580;SDS011;4328;48.622;9.230;2024-03-23T07:51:04;9.17;;;1.73;;
8580;SDS011;4328;48.622;9.230;2024-03-23T07:53:30;10.90;;;2.03;;
8580;SDS011;4328;48.622;9.230;2024-03-23T07:55:58;7.23;;;1.47;;
8580;SDS011;4328;48.622;9.230;2024-03-23T07:58:24;8.53;;;1.60;;
8580;SDS011;4328;48.622;9.230;2024-03-23T08:00:54;2.70;;;0.70;;
8580;SDS011;4328;48.622;9.230;2024-03-23T08:03:20;6.63;;;1.43;;
8580;SDS011;4328;48.622;9.230;2024-03-23T08:05:48;10.50;;;2.13;;
8580;SDS011;4328;48.622;9.230;2024-03-23T08:08:14;10.00;;;1.97;;
8580;SDS011;4328;48.622;9.230;2024-03-23T08:10:47;10.80;;;1.93;;
8580;SDS011;4328;48.622;9.230;2024-03-23T08:13:13;9.57;;;1.87;;
8580;SDS011;4328;48.622;9.230;2024-03-23T08:15:40;9.07;;;1.63;;
8580;SDS011;4328;48.622;9.230;2024-03-23T08:18:06;11.73;;;2.13;;
8580;SDS011;4328;48.622;9.230;2024-03-23T08:20:33;6.33;;;1.30;;
8580;SDS011;4328;48.622;9.230;2024-03-23T08:23:00;4.33;;;1.03;;
8580;SDS011;4328;48.622;9.230;2024-03-23T08:25:26;9.47;;;1.83;;
8580;SDS011;4328;48.622;9.230;2024-03-23T08:27:52;11.57;;;2.03;;
8580;SDS011;4328;48.622;9.230;2024-03-23T08:30:18;9.00;;;1.80;;
8580;SDS011;4328;48.622;9.230;2024-03-23T08:32:44;10.67;;;2.10;;
8580;SDS011;4328;48.622;9.230;2024-03-23T08:35:11;13.67;;;2.47;;
8580;SDS011;4328;48.622;9.230;2024-03-23T08:37:36;8.23;;;1.60;;
8580;SDS011;4328;48.622;9.230;2024-03-23T08:40:05;8.90;;;1.70;;
8580;SDS011;4328;48.622;9.230;2024-03-23T08:42:31;8.63;;;1.80;;
8580;SDS011;4328;48.622;9.230;2024-03-23T08:44:58;10.53;;;1.90;;
8580;SDS011;4328;48.622;9.230;2024-03-23T08:47:23;6.50;;;1.33;;
8580;SDS011;4328;48.622;9.230;2024-03-23T08:49:50;5.47;;;1.30;;
8580;SDS011;4328;48.622;9.230;2024-03-23T08:52:16;10.07;;;1.97;;
8580;SDS011;4328;48.622;9.230;2024-03-23T08:54:43;7.27;;;1.60;;
8580;SDS011;4328;48.622;9.230;2024-03-23T08:57:09;8.17;;;1.83;;
8580;SDS011;4328;48.622;9.230;2024-03-23T08:59:37;8.50;;;1.80;;
8580;SDS011;4328;48.622;9.230;2024-03-23T09:02:03;10.73;;;2.40;;
8580;SDS011;4328;48.622;9.230;2024-03-23T09:04:30;12.83;;;2.80;;
8580;SDS011;4328;48.622;9.230;2024-03-23T09:06:56;10.97;;;2.33;;
8580;SDS011;4328;48.622;9.230;2024-03-23T09:09:24;10.03;;;2.17;;
8580;SDS011;4328;48.622;9.230;2024-03-23T09:11:49;11.20;;;2.40;;
8580;SDS011;4328;48.622;9.230;2024-03-23T09:14:17;9.70;;;2.03;;
8580;SDS011;4328;48.622;9.230;2024-03-23T09:16:44;14.27;;;2.70;;
8580;SDS011;4328;48.622;9.230;2024-03-23T09:19:10;8.97;;;2.40;;
8580;SDS011;4328;48.622;9.230;2024-03-23T09:21:36;8.17;;;2.23;;
8580;SDS011;4328;48.622;9.230;2024-03-23T09:24:02;6.13;;;1.97;;
8580;SDS011;4328;48.622;9.230;2024-03-23T09:26:28;16.17;;;3.27;;
8580;SDS011;4328;48.622;9.230;2024-03-23T09:28:55;9.70;;;2.67;;
8580;SDS011;4328;48.622;9.230;2024-03-23T09:31:22;11.83;;;2.70;;
8580;SDS011;4328;48.622;9.230;2024-03-23T09:33:49;9.13;;;2.67;;
8580;SDS011;4328;48.622;9.230;2024-03-23T09:36:15;8.33;;;2.67;;
8580;SDS011;4328;48.622;9.230;2024-03-23T09:38:42;12.00;;;2.97;;
8580;SDS011;4328;48.622;9.230;2024-03-23T09:41:07;14.40;;;3.67;;
8580;SDS011;4328;48.622;9.230;2024-03-23T09:43:35;9.23;;;2.77;;
8580;SDS011;4328;48.622;9.230;2024-03-23T09:46:01;9.20;;;2.60;;
8580;SDS011;4328;48.622;9.230;2024-03-23T09:48:29;7.40;;;2.20;;
8580;SDS011;4328;48.622;9.230;2024-03-23T09:50:56;8.13;;;2.57;;
8580;SDS011;4328;48.622;9.230;2024-03-23T09:53:23;8.60;;;2.60;;
8580;SDS011;4328;48.622;9.230;2024-03-23T09:55:49;4.93;;;1.93;;
8580;SDS011;4328;48.622;9.230;2024-03-23T09:58:16;8.93;;;2.77;;
8580;SDS011;4328;48.622;9.230;2024-03-23T10:00:43;10.13;;;3.17;;
8580;SDS011;4328;48.622;9.230;2024-03-23T10:03:10;11.93;;;3.13;;
8580;SDS011;4328;48.622;9.230;2024-03-23T10:05:37;10.70;;;2.97;;
8580;SDS011;4328;48.622;9.230;2024-03-23T10:08:17;11.43;;;3.37;;
8580;SDS011;4328;48.622;9.230;2024-03-23T10:10:44;13.67;;;3.60;;
8580;SDS011;4328;48.622;9.230;2024-03-23T10:13:11;10.40;;;3.03;;
8580;SDS011;4328;48.622;9.230;2024-03-23T10:15:48;11.33;;;3.33;;
8580;SDS011;4328;48.622;9.230;2024-03-23T10:18:21;6.43;;;2.40;;
8580;SDS011;4328;48.622;9.230;2024-03-23T10:20:50;12.63;;;3.60;;
8580;SDS011;4328;48.622;9.230;2024-03-23T10:23:18;12.60;;;3.67;;
8580;SDS011;4328;48.622;9.230;2024-03-23T10:25:44;14.23;;;3.60;;
8580;SDS011;4328;48.622;9.230;2024-03-23T10:28:11;13.30;;;3.73;;
8580;SDS011;4328;48.622;9.230;2024-03-23T10:30:37;11.43;;;3.80;;
8580;SDS011;4328;48.622;9.230;2024-03-23T10:33:07;13.20;;;4.10;;
8580;SDS011;4328;48.622;9.230;2024-03-23T10:35:34;7.33;;;3.50;;
8580;SDS011;4328;48.622;9.230;2024-03-23T10:38:03;13.07;;;5.03;;
8580;SDS011;4328;48.622;9.230;2024-03-23T10:40:31;9.97;;;4.20;;
8580;SDS011;4328;48.622;9.230;2024-03-23T10:42:57;10.47;;;3.77;;
8580;SDS011;4328;48.622;9.230;2024-03-23T10:45:23;9.70;;;3.13;;
8580;SDS011;4328;48.622;9.230;2024-03-23T10:47:50;11.63;;;3.33;;
8580;SDS011;4328;48.622;9.230;2024-03-23T10:50:17;12.20;;;3.47;;
8580;SDS011;4328;48.622;9.230;2024-03-23T10:52:45;10.97;;;3.13;;
8580;SDS011;4328;48.622;9.230;2024-03-23T10:55:13;10.83;;;3.07;;
8580;SDS011;4328;48.622;9.230;2024-03-23T10:57:44;13.10;;;3.97;;
8580;SDS011;4328;48.622;9.230;2024-03-23T11:00:14;12.87;;;3.83;;
8580;SDS011;4328;48.622;9.230;2024-03-23T11:02:42;9.90;;;2.50;;
8580;SDS011;4328;48.622;9.230;2024-03-23T11:05:28;11.37;;;2.83;;
8580;SDS011;4328;48.622;9.230;2024-03-23T11:07:55;11.20;;;2.27;;
8580;SDS011;4328;48.622;9.230;2024-03-23T11:10:26;10.83;;;2.53;;
8580;SDS011;4328;48.622;9.230;2024-03-23T11:12:55;12.57;;;3.00;;
8580;SDS011;4328;48.622;9.230;2024-03-23T11:15:21;12.53;;;2.63;;
8580;SDS011;4328;48.622;9.230;2024-03-23T11:20:34;12.67;;;2.80;;
8580;SDS011;4328;48.622;9.230;2024-03-23T11:23:01;10.40;;;2.80;;
8580;SDS011;4328;48.622;9.230;2024-03-23T11:25:29;10.10;;;2.33;;
8580;SDS011;4328;48.622;9.230;2024-03-23T11:27:56;12.57;;;2.87;;
8580;SDS011;4328;48.622;9.230;2024-03-23T11:30:23;11.30;;;2.57;;
8580;SDS011;4328;48.622;9.230;2024-03-23T11:32:51;7.93;;;2.10;;
8580;SDS011;4328;48.622;9.230;2024-03-23T11:35:25;8.47;;;2.13;;
8580;SDS011;4328;48.622;9.230;2024-03-23T11:38:05;11.40;;;2.67;;
8580;SDS011;4328;48.622;9.230;2024-03-23T11:40:33;11.03;;;2.63;;
8580;SDS011;4328;48.622;9.230;2024-03-23T11:43:01;9.90;;;2.30;;
8580;SDS011;4328;48.622;9.230;2024-03-23T11:45:28;10.20;;;2.30;;
8580;SDS011;4328;48.622;9.230;2024-03-23T11:48:06;10.37;;;2.40;;
8580;SDS011;4328;48.622;9.230;2024-03-23T11:50:34;10.10;;;2.47;;
8580;SDS011;4328;48.622;9.230;2024-03-23T11:53:13;7.77;;;2.20;;
8580;SDS011;4328;48.622;9.230;2024-03-23T11:55:43;22.27;;;4.50;;
8580;SDS011;4328;48.622;9.230;2024-03-23T11:58:11;11.23;;;2.47;;
8580;SDS011;4328;48.622;9.230;2024-03-23T12:00:37;10.67;;;2.47;;
8580;SDS011;4328;48.622;9.230;2024-03-23T12:03:04;10.53;;;2.57;;
8580;SDS011;4328;48.622;9.230;2024-03-23T12:05:30;10.13;;;2.07;;
8580;SDS011;4328;48.622;9.230;2024-03-23T12:08:17;10.77;;;2.70;;
8580;SDS011;4328;48.622;9.230;2024-03-23T12:10:46;10.93;;;2.40;;
8580;SDS011;4328;48.622;9.230;2024-03-23T12:13:14;11.33;;;2.77;;
8580;SDS011;4328;48.622;9.230;2024-03-23T12:15:42;14.97;;;3.27;;
8580;SDS011;4328;48.622;9.230;2024-03-23T12:18:08;8.17;;;2.23;;
8580;SDS011;4328;48.622;9.230;2024-03-23T12:20:35;9.57;;;2.37;;
8580;SDS011;4328;48.622;9.230;2024-03-23T12:23:06;10.80;;;2.43;;
8580;SDS011;4328;48.622;9.230;2024-03-23T12:25:33;9.97;;;2.50;;
8580;SDS011;4328;48.622;9.230;2024-03-23T12:28:02;13.67;;;2.60;;
8580;SDS011;4328;48.622;9.230;2024-03-23T12:30:31;13.57;;;2.77;;
8580;SDS011;4328;48.622;9.230;2024-03-23T12:32:57;11.10;;;2.53;;
8580;SDS011;4328;48.622;9.230;2024-03-23T12:35:23;7.77;;;2.20;;
8580;SDS011;4328;48.622;9.230;2024-03-23T12:37:49;11.67;;;2.70;;
8580;SDS011;4328;48.622;9.230;2024-03-23T12:40:15;19.17;;;4.00;;
8580;SDS011;4328;48.622;9.230;2024-03-23T12:42:43;23.53;;;4.27;;
8580;SDS011;4328;48.622;9.230;2024-03-23T12:45:11;7.20;;;1.90;;
8580;SDS011;4328;48.622;9.230;2024-03-23T12:47:37;8.77;;;2.40;;
8580;SDS011;4328;48.622;9.230;2024-03-23T12:50:04;16.17;;;3.80;;
8580;SDS011;4328;48.622;9.230;2024-03-23T12:52:30;14.47;;;3.43;;
8580;SDS011;4328;48.622;9.230;2024-03-23T12:54:57;11.83;;;2.60;;
8580;SDS011;4328;48.622;9.230;2024-03-23T12:57:23;8.97;;;2.60;;
8580;SDS011;4328;48.622;9.230;2024-03-23T12:59:51;11.33;;;2.97;;
8580;SDS011;4328;48.622;9.230;2024-03-23T13:02:19;12.23;;;3.00;;
8580;SDS011;4328;48.622;9.230;2024-03-23T13:04:49;8.80;;;2.63;;
8580;SDS011;4328;48.622;9.230;2024-03-23T13:07:14;12.33;;;3.03;;
8580;SDS011;4328;48.622;9.230;2024-03-23T13:09:41;14.37;;;3.13;;
8580;SDS011;4328;48.622;9.230;2024-03-23T13:12:07;13.67;;;3.07;;
8580;SDS011;4328;48.622;9.230;2024-03-23T13:14:34;12.43;;;3.17;;
8580;SDS011;4328;48.622;9.230;2024-03-23T13:17:00;10.77;;;3.13;;
8580;SDS011;4328;48.622;9.230;2024-03-23T13:19:30;16.17;;;3.57;;
8580;SDS011;4328;48.622;9.230;2024-03-23T13:21:56;9.73;;;2.67;;
8580;SDS011;4328;48.622;9.230;2024-03-23T13:24:23;19.93;;;4.30;;
8580;SDS011;4328;48.622;9.230;2024-03-23T13:26:50;24.97;;;4.70;;
8580;SDS011;4328;48.622;9.230;2024-03-23T13:29:16;12.27;;;3.10;;
8580;SDS011;4328;48.622;9.230;2024-03-23T13:31:42;16.20;;;3.70;;
8580;SDS011;4328;48.622;9.230;2024-03-23T13:34:09;12.93;;;3.00;;
8580;SDS011;4328;48.622;9.230;2024-03-23T13:36:36;14.63;;;3.40;;
8580;SDS011;4328;48.622;9.230;2024-03-23T13:39:03;8.80;;;2.13;;
8580;SDS011;4328;48.622;9.230;2024-03-23T13:41:35;11.37;;;2.47;;
8580;SDS011;4328;48.622;9.230;2024-03-23T13:44:01;6.93;;;1.60;;
8580;SDS011;4328;48.622;9.230;2024-03-23T13:46:28;7.20;;;2.03;;
8580;SDS011;4328;48.622;9.230;2024-03-23T13:48:55;12.83;;;2.70;;
8580;SDS011;4328;48.622;9.230;2024-03-23T13:51:23;13.43;;;2.87;;
8580;SDS011;4328;48.622;9.230;2024-03-23T13:53:53;11.87;;;2.63;;
8580;SDS011;4328;48.622;9.230;2024-03-23T13:56:19;10.77;;;2.30;;
8580;SDS011;4328;48.622;9.230;2024-03-23T13:58:46;12.40;;;2.57;;
8580;SDS011;4328;48.622;9.230;2024-03-23T14:01:15;9.50;;;2.20;;
8580;SDS011;4328;48.622;9.230;2024-03-23T14:03:42;9.47;;;2.23;;
8580;SDS011;4328;48.622;9.230;2024-03-23T14:06:08;9.77;;;2.40;;
8580;SDS011;4328;48.622;9.230;2024-03-23T14:08:35;8.37;;;2.13;;
8580;SDS011;4328;48.622;9.230;2024-03-23T14:11:03;8.67;;;2.20;;
8580;SDS011;4328;48.622;9.230;2024-03-23T14:13:30;11.47;;;2.83;;
8580;SDS011;4328;48.622;9.230;2024-03-23T14:15:56;10.73;;;2.67;;
8580;SDS011;4328;48.622;9.230;2024-03-23T14:18:23;9.93;;;2.27;;
8580;SDS011;4328;48.622;9.230;2024-03-23T14:20:48;11.70;;;2.50;;
8580;SDS011;4328;48.622;9.230;2024-03-23T14:23:15;3.33;;;1.30;;
8580;SDS011;4328;48.622;9.230;2024-03-23T14:25:41;7.50;;;1.70;;
8580;SDS011;4328;48.622;9.230;2024-03-23T14:28:09;8.60;;;1.97;;
8580;SDS011;4328;48.622;9.230;2024-03-23T14:30:39;10.40;;;2.30;;
8580;SDS011;4328;48.622;9.230;2024-03-23T14:33:06;10.40;;;2.20;;
8580;SDS011;4328;48.622;9.230;2024-03-23T14:35:31;11.43;;;2.67;;
8580;SDS011;4328;48.622;9.230;2024-03-23T14:37:58;10.47;;;2.67;;
8580;SDS011;4328;48.622;9.230;2024-03-23T14:40:24;11.70;;;2.83;;
8580;SDS011;4328;48.622;9.230;2024-03-23T14:42:52;8.77;;;2.27;;
8580;SDS011;4328;48.622;9.230;2024-03-23T14:45:19;11.47;;;4.30;;
8580;SDS011;4328;48.622;9.230;2024-03-23T14:47:46;13.67;;;7.60;;
8580;SDS011;4328;48.622;9.230;2024-03-23T14:50:12;7.57;;;2.13;;
8580;SDS011;4328;48.622;9.230;2024-03-23T14:52:40;13.37;;;3.13;;
8580;SDS011;4328;48.622;9.230;2024-03-23T14:55:07;12.00;;;2.40;;
8580;SDS011;4328;48.622;9.230;2024-03-23T14:57:34;12.80;;;2.60;;
8580;SDS011;4328;48.622;9.230;2024-03-23T15:00:00;10.50;;;2.53;;
8580;SDS011;4328;48.622;9.230;2024-03-23T15:02:28;11.50;;;2.57;;
8580;SDS011;4328;48.622;9.230;2024-03-23T15:04:55;7.03;;;1.80;;
8580;SDS011;4328;48.622;9.230;2024-03-23T15:07:21;8.90;;;2.10;;
8580;SDS011;4328;48.622;9.230;2024-03-23T15:09:47;8.53;;;1.83;;
8580;SDS011;4328;48.622;9.230;2024-03-23T15:12:13;10.50;;;2.33;;
8580;SDS011;4328;48.622;9.230;2024-03-23T15:14:39;4.77;;;1.20;;
8580;SDS011;4328;48.622;9.230;2024-03-23T15:17:06;5.90;;;1.67;;
8580;SDS011;4328;48.622;9.230;2024-03-23T15:19:35;9.30;;;2.07;;
8580;SDS011;4328;48.622;9.230;2024-03-23T15:22:01;9.03;;;2.10;;
8580;SDS011;4328;48.622;9.230;2024-03-23T15:24:27;8.83;;;2.10;;
8580;SDS011;4328;48.622;9.230;2024-03-23T15:26:53;7.83;;;1.67;;
8580;SDS011;4328;48.622;9.230;2024-03-23T15:29:20;7.10;;;2.50;;
8580;SDS011;4328;48.622;9.230;2024-03-23T15:31:48;12.80;;;2.47;;
8580;SDS011;4328;48.622;9.230;2024-03-23T15:34:17;12.13;;;2.73;;
8580;SDS011;4328;48.622;9.230;2024-03-23T15:36:45;10.33;;;2.43;;
8580;SDS011;4328;48.622;9.230;2024-03-23T15:39:11;7.43;;;1.80;;
8580;SDS011;4328;48.622;9.230;2024-03-23T15:41:38;11.63;;;2.33;;
8580;SDS011;4328;48.622;9.230;2024-03-23T15:44:04;10.50;;;2.17;;
8580;SDS011;4328;48.622;9.230;2024-03-23T15:46:31;8.27;;;1.90;;
8580;SDS011;4328;48.622;9.230;2024-03-23T15:48:56;8.20;;;1.80;;
8580;SDS011;4328;48.622;9.230;2024-03-23T15:51:23;12.07;;;2.43;;
8580;SDS011;4328;48.622;9.230;2024-03-23T15:53:52;3.50;;;1.13;;
8580;SDS011;4328;48.622;9.230;2024-03-23T15:56:22;11.23;;;2.33;;
8580;SDS011;4328;48.622;9.230;2024-03-23T15:58:47;11.33;;;2.30;;